Friday, May 25, 2018, 8:07 PM EDT
Back to Local

KEEN, Keene, Dillant-hopkins Airport

Location: Keene, NH, United States Lat: 42.9
Local Time: 8:07 PM EDT ( 0:07 GMT) Lon: -72.267
Time Zone: US/Eastern Elev: 488 ft

Show me the last for .
Show Coded

Time T Td Feel RH Dir Speed Gust Alt SLP Vis Weather Sky Remarks
2018-05-25 18:56 79 48 - 33 300° 5 - 29.76 29.81 10 BKN090 None
2018-05-25 17:56 83 46 - 27 270° 5 - 29.76 29.80 10 OVC090 None
2018-05-25 16:56 85 46 - 25 250° 12 17 29.77 29.81 10 BKN110 None
2018-05-25 15:56 87 44 - 22 250° 9 - 29.78 29.82 10 OVC120 None
2018-05-25 14:56 86 46 - 24 270° 8 - 29.80 29.84 10 CLR None
2018-05-25 13:56 85 45 - 24 260° 12 21 29.82 29.86 5 HZ CLR 6-hr Min Temp (2pm): 60.1°F
6-hr Max Temp (2pm): 86.0°F
2018-05-25 12:56 85 46 - 25 270° 13 24 29.84 29.88 10 CLR None
2018-05-25 11:56 85 49 - 28 270° 9 18 29.86 29.90 10 CLR None
2018-05-25 10:56 80 53 - 39 210° 12 - 29.90 29.95 10 CLR None
2018-05-25 09:56 76 51 77 41 210° 9 - 29.93 29.97 10 CLR None
2018-05-25 08:56 67 55 - 65 Variable 3 - 29.96 30.01 10 CLR None
2018-05-25 07:56 59 53 - 80 - Calm - 29.98 30.02 10 CLR 6-hr Min Temp (8am): 44.1°F
6-hr Max Temp (8am): 59.0°F
2018-05-25 06:56 49 48 48 96 200° 3 - 29.99 30.03 10 CLR None
2018-05-25 04:56 44 43 - 95 - Calm - 29.99 30.04 10 CLR None
2018-05-25 03:56 45 45 - 100 - Calm - 30.00 30.05 10 CLR None
2018-05-25 02:56 46 45 - 95 - Calm - 30.01 30.06 10 CLR None
2018-05-25 01:56 47 45 - 92 - Calm - 30.02 30.07 10 CLR 6-hr Min Temp (2am): 46.9°F
6-hr Max Temp (2am): 70.0°F
2018-05-25 00:56 48 45 - 89 - Calm - 30.04 30.09 10 CLR 24-hr Min Temp (1am): 43.0°F
24-hr Max Temp (1am): 80.1°F
2018-05-24 22:56 52 45 - 76 - Calm - 30.04 30.09 10 CLR None
2018-05-24 21:56 55 44 - 66 - Calm - 30.05 30.10 10 CLR None
2018-05-24 20:56 59 46 - 62 - Calm - 30.04 30.09 10 CLR None

Support USWX by starting your Amazon purchase here.